Large, Pennsylvania
Current Conditions -  °F | °C
As of 6:53 AM on Tuesday 27 Jan 2015 (Local Time) from KAGC Reporting Station
Light Snow Light Snow  
Wind Chill: 10°   Ceiling: 1200
Heat Index: 18°   Visibility: 3mi
Dew Point: 13°   Wind: 6mph
Humidity: 81%   Direction: 320°NW
Pressure: 29.86"   Gusts: NA
Location:  40.2958°N, 79.9241°W
Report Text: KAGC 271153Z 32005KT 3SM -SN OVC012 M08/M11 A2986 RMK AO2 SNB1056 SLP133 P0000 60000 70027 I6000 T10781106 11072 21078 53009
Loading
Personal Weather Stations






























Interactive Weather Map New forecast layout! Learn more

10-Day Weather Forecast

Advertisements
Track Severe Weather on mobile